sensor_id;sensor_type;location;lat;lon;timestamp;P1;durP1;ratioP1;P2;durP2;ratioP2
16352;SDS011;8286;51.274;9.542;2024-01-27T00:02:07;6.50;;;1.63;;
16352;SDS011;8286;51.274;9.542;2024-01-27T00:04:35;10.20;;;1.83;;
16352;SDS011;8286;51.274;9.542;2024-01-27T00:07:03;8.97;;;2.57;;
16352;SDS011;8286;51.274;9.542;2024-01-27T00:09:29;14.97;;;2.10;;
16352;SDS011;8286;51.274;9.542;2024-01-27T00:11:56;10.57;;;2.10;;
16352;SDS011;8286;51.274;9.542;2024-01-27T00:14:23;8.87;;;1.83;;
16352;SDS011;8286;51.274;9.542;2024-01-27T00:16:49;14.20;;;2.53;;
16352;SDS011;8286;51.274;9.542;2024-01-27T00:19:16;7.83;;;2.10;;
16352;SDS011;8286;51.274;9.542;2024-01-27T00:21:42;12.03;;;1.80;;
16352;SDS011;8286;51.274;9.542;2024-01-27T00:24:10;9.27;;;2.17;;
16352;SDS011;8286;51.274;9.542;2024-01-27T00:26:36;6.27;;;2.27;;
16352;SDS011;8286;51.274;9.542;2024-01-27T00:29:03;5.97;;;2.10;;
16352;SDS011;8286;51.274;9.542;2024-01-27T00:31:29;9.13;;;1.90;;
16352;SDS011;8286;51.274;9.542;2024-01-27T00:33:56;10.97;;;2.77;;
16352;SDS011;8286;51.274;9.542;2024-01-27T00:36:22;7.63;;;1.93;;
16352;SDS011;8286;51.274;9.542;2024-01-27T00:38:49;14.13;;;3.13;;
16352;SDS011;8286;51.274;9.542;2024-01-27T00:41:17;11.47;;;2.03;;
16352;SDS011;8286;51.274;9.542;2024-01-27T00:43:44;5.10;;;1.60;;
16352;SDS011;8286;51.274;9.542;2024-01-27T00:46:11;12.97;;;2.10;;
16352;SDS011;8286;51.274;9.542;2024-01-27T00:48:37;5.87;;;2.20;;
16352;SDS011;8286;51.274;9.542;2024-01-27T00:51:04;8.57;;;2.93;;
16352;SDS011;8286;51.274;9.542;2024-01-27T00:53:31;13.50;;;2.23;;
16352;SDS011;8286;51.274;9.542;2024-01-27T00:55:57;12.53;;;2.77;;
16352;SDS011;8286;51.274;9.542;2024-01-27T00:58:25;12.90;;;2.90;;
16352;SDS011;8286;51.274;9.542;2024-01-27T01:00:52;10.63;;;1.97;;
16352;SDS011;8286;51.274;9.542;2024-01-27T01:03:18;6.97;;;2.17;;
16352;SDS011;8286;51.274;9.542;2024-01-27T01:05:45;13.13;;;2.40;;
16352;SDS011;8286;51.274;9.542;2024-01-27T01:08:11;14.23;;;3.00;;
16352;SDS011;8286;51.274;9.542;2024-01-27T01:10:38;10.77;;;2.73;;
16352;SDS011;8286;51.274;9.542;2024-01-27T01:13:04;6.53;;;2.60;;
16352;SDS011;8286;51.274;9.542;2024-01-27T01:15:32;8.47;;;2.70;;
16352;SDS011;8286;51.274;9.542;2024-01-27T01:17:59;10.43;;;2.77;;
16352;SDS011;8286;51.274;9.542;2024-01-27T01:20:25;10.70;;;2.77;;
16352;SDS011;8286;51.274;9.542;2024-01-27T01:22:52;8.70;;;2.60;;
16352;SDS011;8286;51.274;9.542;2024-01-27T01:25:18;15.87;;;3.63;;
16352;SDS011;8286;51.274;9.542;2024-01-27T01:27:45;10.57;;;2.37;;
16352;SDS011;8286;51.274;9.542;2024-01-27T01:30:14;10.77;;;2.50;;
16352;SDS011;8286;51.274;9.542;2024-01-27T01:32:43;16.30;;;3.90;;
16352;SDS011;8286;51.274;9.542;2024-01-27T01:35:09;9.40;;;1.87;;
16352;SDS011;8286;51.274;9.542;2024-01-27T01:37:36;6.43;;;3.07;;
16352;SDS011;8286;51.274;9.542;2024-01-27T01:40:03;10.60;;;2.80;;
16352;SDS011;8286;51.274;9.542;2024-01-27T01:42:30;9.77;;;2.80;;
16352;SDS011;8286;51.274;9.542;2024-01-27T01:44:57;16.13;;;3.20;;
16352;SDS011;8286;51.274;9.542;2024-01-27T01:47:23;9.23;;;2.50;;
16352;SDS011;8286;51.274;9.542;2024-01-27T01:49:51;10.37;;;2.80;;
16352;SDS011;8286;51.274;9.542;2024-01-27T01:52:18;4.17;;;2.57;;
16352;SDS011;8286;51.274;9.542;2024-01-27T01:54:46;6.80;;;2.73;;
16352;SDS011;8286;51.274;9.542;2024-01-27T01:57:14;13.87;;;3.37;;
16352;SDS011;8286;51.274;9.542;2024-01-27T01:59:41;7.73;;;2.60;;
16352;SDS011;8286;51.274;9.542;2024-01-27T02:02:07;8.53;;;2.43;;
16352;SDS011;8286;51.274;9.542;2024-01-27T02:04:39;11.97;;;2.90;;
16352;SDS011;8286;51.274;9.542;2024-01-27T02:07:07;9.97;;;2.70;;
16352;SDS011;8286;51.274;9.542;2024-01-27T02:09:33;13.30;;;3.70;;
16352;SDS011;8286;51.274;9.542;2024-01-27T02:12:00;7.00;;;2.57;;
16352;SDS011;8286;51.274;9.542;2024-01-27T02:14:27;11.93;;;3.27;;
16352;SDS011;8286;51.274;9.542;2024-01-27T02:16:54;10.00;;;2.43;;
16352;SDS011;8286;51.274;9.542;2024-01-27T02:19:20;13.40;;;2.70;;
16352;SDS011;8286;51.274;9.542;2024-01-27T02:21:47;16.50;;;2.90;;
16352;SDS011;8286;51.274;9.542;2024-01-27T02:24:14;9.27;;;2.70;;
16352;SDS011;8286;51.274;9.542;2024-01-27T02:26:41;16.03;;;2.77;;
16352;SDS011;8286;51.274;9.542;2024-01-27T02:29:07;13.80;;;2.97;;
16352;SDS011;8286;51.274;9.542;2024-01-27T02:31:34;10.90;;;2.77;;
16352;SDS011;8286;51.274;9.542;2024-01-27T02:34:01;9.57;;;2.53;;
16352;SDS011;8286;51.274;9.542;2024-01-27T02:36:27;7.20;;;2.60;;
16352;SDS011;8286;51.274;9.542;2024-01-27T02:38:54;13.07;;;2.80;;
16352;SDS011;8286;51.274;9.542;2024-01-27T02:41:21;7.70;;;2.83;;
16352;SDS011;8286;51.274;9.542;2024-01-27T02:43:48;13.00;;;2.20;;
16352;SDS011;8286;51.274;9.542;2024-01-27T02:46:14;11.80;;;2.77;;
16352;SDS011;8286;51.274;9.542;2024-01-27T02:48:41;11.17;;;3.57;;
16352;SDS011;8286;51.274;9.542;2024-01-27T02:51:08;14.87;;;2.43;;
16352;SDS011;8286;51.274;9.542;2024-01-27T02:53:34;9.23;;;2.80;;
16352;SDS011;8286;51.274;9.542;2024-01-27T02:56:01;7.83;;;2.67;;
16352;SDS011;8286;51.274;9.542;2024-01-27T02:58:29;10.67;;;2.63;;
16352;SDS011;8286;51.274;9.542;2024-01-27T03:00:56;9.67;;;2.90;;
16352;SDS011;8286;51.274;9.542;2024-01-27T03:03:22;9.30;;;2.50;;
16352;SDS011;8286;51.274;9.542;2024-01-27T03:05:49;11.53;;;2.57;;
16352;SDS011;8286;51.274;9.542;2024-01-27T03:08:15;7.07;;;2.53;;
16352;SDS011;8286;51.274;9.542;2024-01-27T03:10:42;12.57;;;3.07;;
16352;SDS011;8286;51.274;9.542;2024-01-27T03:13:08;8.37;;;2.57;;
16352;SDS011;8286;51.274;9.542;2024-01-27T03:15:36;14.67;;;3.33;;
16352;SDS011;8286;51.274;9.542;2024-01-27T03:18:03;6.17;;;2.00;;
16352;SDS011;8286;51.274;9.542;2024-01-27T03:20:30;11.70;;;2.10;;
16352;SDS011;8286;51.274;9.542;2024-01-27T03:22:57;9.37;;;2.50;;
16352;SDS011;8286;51.274;9.542;2024-01-27T03:25:24;6.43;;;2.10;;
16352;SDS011;8286;51.274;9.542;2024-01-27T03:27:50;10.27;;;2.57;;
16352;SDS011;8286;51.274;9.542;2024-01-27T03:30:17;5.90;;;1.77;;
16352;SDS011;8286;51.274;9.542;2024-01-27T03:32:45;4.77;;;1.93;;
16352;SDS011;8286;51.274;9.542;2024-01-27T03:35:12;8.83;;;2.00;;
16352;SDS011;8286;51.274;9.542;2024-01-27T03:37:38;11.43;;;2.40;;
16352;SDS011;8286;51.274;9.542;2024-01-27T03:40:05;8.90;;;2.67;;
16352;SDS011;8286;51.274;9.542;2024-01-27T03:42:33;10.17;;;2.00;;
16352;SDS011;8286;51.274;9.542;2024-01-27T03:45:00;8.97;;;1.93;;
16352;SDS011;8286;51.274;9.542;2024-01-27T03:47:26;7.10;;;1.80;;
16352;SDS011;8286;51.274;9.542;2024-01-27T03:49:54;13.20;;;2.13;;
16352;SDS011;8286;51.274;9.542;2024-01-27T03:52:21;9.43;;;2.33;;
16352;SDS011;8286;51.274;9.542;2024-01-27T03:54:47;10.07;;;2.70;;
16352;SDS011;8286;51.274;9.542;2024-01-27T03:57:14;13.60;;;2.93;;
16352;SDS011;8286;51.274;9.542;2024-01-27T03:59:41;9.67;;;2.63;;
16352;SDS011;8286;51.274;9.542;2024-01-27T04:02:07;17.23;;;2.43;;
16352;SDS011;8286;51.274;9.542;2024-01-27T04:04:34;12.70;;;2.53;;
16352;SDS011;8286;51.274;9.542;2024-01-27T04:07:02;9.13;;;3.10;;
16352;SDS011;8286;51.274;9.542;2024-01-27T04:09:29;5.20;;;1.90;;
16352;SDS011;8286;51.274;9.542;2024-01-27T04:11:55;7.73;;;2.27;;
16352;SDS011;8286;51.274;9.542;2024-01-27T04:14:22;5.23;;;2.17;;
16352;SDS011;8286;51.274;9.542;2024-01-27T04:16:48;4.40;;;2.20;;
16352;SDS011;8286;51.274;9.542;2024-01-27T04:19:15;10.97;;;2.67;;
16352;SDS011;8286;51.274;9.542;2024-01-27T04:21:41;12.77;;;2.17;;
16352;SDS011;8286;51.274;9.542;2024-01-27T04:24:09;9.03;;;1.93;;
16352;SDS011;8286;51.274;9.542;2024-01-27T04:26:36;7.37;;;2.00;;
16352;SDS011;8286;51.274;9.542;2024-01-27T04:29:02;11.20;;;2.77;;
16352;SDS011;8286;51.274;9.542;2024-01-27T04:31:29;8.30;;;2.50;;
16352;SDS011;8286;51.274;9.542;2024-01-27T04:33:56;11.57;;;2.47;;
16352;SDS011;8286;51.274;9.542;2024-01-27T04:36:26;14.40;;;3.00;;
16352;SDS011;8286;51.274;9.542;2024-01-27T04:38:54;9.93;;;2.00;;
16352;SDS011;8286;51.274;9.542;2024-01-27T04:41:22;8.50;;;2.20;;
16352;SDS011;8286;51.274;9.542;2024-01-27T04:43:48;11.33;;;2.73;;
16352;SDS011;8286;51.274;9.542;2024-01-27T04:46:15;8.23;;;2.43;;
16352;SDS011;8286;51.274;9.542;2024-01-27T04:48:42;8.77;;;2.30;;
16352;SDS011;8286;51.274;9.542;2024-01-27T04:51:08;16.17;;;3.37;;
16352;SDS011;8286;51.274;9.542;2024-01-27T04:53:35;8.13;;;2.70;;
16352;SDS011;8286;51.274;9.542;2024-01-27T04:56:01;6.67;;;2.77;;
16352;SDS011;8286;51.274;9.542;2024-01-27T04:58:34;10.43;;;2.83;;
16352;SDS011;8286;51.274;9.542;2024-01-27T05:01:01;8.80;;;1.83;;
16352;SDS011;8286;51.274;9.542;2024-01-27T05:03:28;14.13;;;2.30;;
16352;SDS011;8286;51.274;9.542;2024-01-27T05:05:55;4.83;;;2.20;;
16352;SDS011;8286;51.274;9.542;2024-01-27T05:08:21;10.93;;;2.43;;
16352;SDS011;8286;51.274;9.542;2024-01-27T05:10:48;10.60;;;2.40;;
16352;SDS011;8286;51.274;9.542;2024-01-27T05:13:14;11.83;;;2.60;;
16352;SDS011;8286;51.274;9.542;2024-01-27T05:15:42;8.73;;;2.30;;
16352;SDS011;8286;51.274;9.542;2024-01-27T05:18:08;5.30;;;2.77;;
16352;SDS011;8286;51.274;9.542;2024-01-27T05:20:36;12.63;;;3.13;;
16352;SDS011;8286;51.274;9.542;2024-01-27T05:23:02;15.30;;;2.80;;
16352;SDS011;8286;51.274;9.542;2024-01-27T05:25:29;11.63;;;2.67;;
16352;SDS011;8286;51.274;9.542;2024-01-27T05:27:56;8.93;;;2.57;;
16352;SDS011;8286;51.274;9.542;2024-01-27T05:30:22;9.70;;;3.00;;
16352;SDS011;8286;51.274;9.542;2024-01-27T05:32:50;9.73;;;2.40;;
16352;SDS011;8286;51.274;9.542;2024-01-27T05:35:17;11.00;;;2.57;;
16352;SDS011;8286;51.274;9.542;2024-01-27T05:37:43;6.40;;;2.30;;
16352;SDS011;8286;51.274;9.542;2024-01-27T05:40:10;11.27;;;2.50;;
16352;SDS011;8286;51.274;9.542;2024-01-27T05:42:37;7.27;;;2.33;;
16352;SDS011;8286;51.274;9.542;2024-01-27T05:45:06;6.33;;;2.10;;
16352;SDS011;8286;51.274;9.542;2024-01-27T05:47:33;8.80;;;3.50;;
16352;SDS011;8286;51.274;9.542;2024-01-27T05:50:00;10.30;;;2.63;;
16352;SDS011;8286;51.274;9.542;2024-01-27T05:52:27;11.77;;;2.50;;
16352;SDS011;8286;51.274;9.542;2024-01-27T05:54:54;6.63;;;3.03;;
16352;SDS011;8286;51.274;9.542;2024-01-27T05:57:20;6.00;;;2.30;;
16352;SDS011;8286;51.274;9.542;2024-01-27T05:59:47;3.90;;;1.90;;
16352;SDS011;8286;51.274;9.542;2024-01-27T06:02:14;8.83;;;2.47;;
16352;SDS011;8286;51.274;9.542;2024-01-27T06:04:42;9.53;;;2.20;;
16352;SDS011;8286;51.274;9.542;2024-01-27T06:07:10;9.07;;;2.37;;
16352;SDS011;8286;51.274;9.542;2024-01-27T06:09:37;8.00;;;2.47;;
16352;SDS011;8286;51.274;9.542;2024-01-27T06:12:04;10.50;;;2.20;;
16352;SDS011;8286;51.274;9.542;2024-01-27T06:14:31;9.57;;;2.30;;
16352;SDS011;8286;51.274;9.542;2024-01-27T06:16:58;7.77;;;3.10;;
16352;SDS011;8286;51.274;9.542;2024-01-27T06:19:25;7.20;;;1.93;;
16352;SDS011;8286;51.274;9.542;2024-01-27T06:21:51;6.40;;;2.23;;
16352;SDS011;8286;51.274;9.542;2024-01-27T06:24:20;5.70;;;2.10;;
16352;SDS011;8286;51.274;9.542;2024-01-27T06:26:46;12.17;;;2.47;;
16352;SDS011;8286;51.274;9.542;2024-01-27T06:29:13;12.43;;;3.30;;
16352;SDS011;8286;51.274;9.542;2024-01-27T06:31:39;8.70;;;2.57;;
16352;SDS011;8286;51.274;9.542;2024-01-27T06:34:06;11.07;;;2.83;;
16352;SDS011;8286;51.274;9.542;2024-01-27T06:36:33;6.97;;;2.93;;
16352;SDS011;8286;51.274;9.542;2024-01-27T06:38:59;12.70;;;2.33;;
16352;SDS011;8286;51.274;9.542;2024-01-27T06:41:27;8.47;;;2.47;;
16352;SDS011;8286;51.274;9.542;2024-01-27T06:43:54;5.20;;;2.20;;
16352;SDS011;8286;51.274;9.542;2024-01-27T06:46:20;12.33;;;2.97;;
16352;SDS011;8286;51.274;9.542;2024-01-27T06:48:47;10.47;;;3.43;;
16352;SDS011;8286;51.274;9.542;2024-01-27T06:51:13;8.43;;;2.47;;
16352;SDS011;8286;51.274;9.542;2024-01-27T06:53:40;4.67;;;2.27;;
16352;SDS011;8286;51.274;9.542;2024-01-27T06:56:07;14.73;;;2.87;;
16352;SDS011;8286;51.274;9.542;2024-01-27T06:58:35;13.73;;;2.93;;
16352;SDS011;8286;51.274;9.542;2024-01-27T07:01:02;5.40;;;2.43;;
16352;SDS011;8286;51.274;9.542;2024-01-27T07:03:29;8.07;;;3.33;;
16352;SDS011;8286;51.274;9.542;2024-01-27T07:05:55;9.00;;;2.47;;
16352;SDS011;8286;51.274;9.542;2024-01-27T07:08:25;7.60;;;2.50;;
16352;SDS011;8286;51.274;9.542;2024-01-27T07:10:52;8.83;;;2.50;;
16352;SDS011;8286;51.274;9.542;2024-01-27T07:13:19;8.67;;;2.90;;
16352;SDS011;8286;51.274;9.542;2024-01-27T07:15:46;10.13;;;3.23;;
16352;SDS011;8286;51.274;9.542;2024-01-27T07:18:13;8.47;;;3.03;;
16352;SDS011;8286;51.274;9.542;2024-01-27T07:20:40;8.73;;;2.80;;
16352;SDS011;8286;51.274;9.542;2024-01-27T07:23:07;10.33;;;3.07;;
16352;SDS011;8286;51.274;9.542;2024-01-27T07:25:33;17.97;;;3.73;;
16352;SDS011;8286;51.274;9.542;2024-01-27T07:28:00;8.87;;;2.80;;
16352;SDS011;8286;51.274;9.542;2024-01-27T07:30:26;13.77;;;3.37;;
16352;SDS011;8286;51.274;9.542;2024-01-27T07:32:55;7.20;;;3.10;;
16352;SDS011;8286;51.274;9.542;2024-01-27T07:35:21;6.93;;;3.03;;
16352;SDS011;8286;51.274;9.542;2024-01-27T07:37:48;17.87;;;3.63;;
16352;SDS011;8286;51.274;9.542;2024-01-27T07:40:15;13.27;;;3.30;;
16352;SDS011;8286;51.274;9.542;2024-01-27T07:42:41;8.30;;;3.13;;
16352;SDS011;8286;51.274;9.542;2024-01-27T07:45:08;10.10;;;3.33;;
16352;SDS011;8286;51.274;9.542;2024-01-27T07:47:35;8.23;;;3.97;;
16352;SDS011;8286;51.274;9.542;2024-01-27T07:50:03;14.03;;;3.73;;
16352;SDS011;8286;51.274;9.542;2024-01-27T07:52:30;7.40;;;3.90;;
16352;SDS011;8286;51.274;9.542;2024-01-27T07:54:56;12.77;;;5.40;;
16352;SDS011;8286;51.274;9.542;2024-01-27T07:57:23;12.10;;;5.47;;
16352;SDS011;8286;51.274;9.542;2024-01-27T07:59:50;9.90;;;4.27;;
16352;SDS011;8286;51.274;9.542;2024-01-27T08:02:16;15.47;;;5.00;;
16352;SDS011;8286;51.274;9.542;2024-01-27T08:04:43;7.10;;;4.03;;
16352;SDS011;8286;51.274;9.542;2024-01-27T08:07:11;12.67;;;4.23;;
16352;SDS011;8286;51.274;9.542;2024-01-27T08:09:40;8.67;;;3.87;;
16352;SDS011;8286;51.274;9.542;2024-01-27T08:12:07;16.30;;;4.67;;
16352;SDS011;8286;51.274;9.542;2024-01-27T08:14:34;17.00;;;4.97;;
16352;SDS011;8286;51.274;9.542;2024-01-27T08:17:00;24.10;;;5.70;;
16352;SDS011;8286;51.274;9.542;2024-01-27T08:19:28;15.47;;;5.67;;
16352;SDS011;8286;51.274;9.542;2024-01-27T08:21:55;10.97;;;3.50;;
16352;SDS011;8286;51.274;9.542;2024-01-27T08:24:23;10.20;;;4.30;;
16352;SDS011;8286;51.274;9.542;2024-01-27T08:26:50;10.23;;;4.43;;
16352;SDS011;8286;51.274;9.542;2024-01-27T08:29:16;8.87;;;4.63;;
16352;SDS011;8286;51.274;9.542;2024-01-27T08:31:43;12.03;;;4.43;;
16352;SDS011;8286;51.274;9.542;2024-01-27T08:34:09;12.10;;;3.47;;
16352;SDS011;8286;51.274;9.542;2024-01-27T08:36:37;8.13;;;3.77;;
16352;SDS011;8286;51.274;9.542;2024-01-27T08:39:04;12.40;;;3.83;;
16352;SDS011;8286;51.274;9.542;2024-01-27T08:41:33;9.17;;;3.70;;
16352;SDS011;8286;51.274;9.542;2024-01-27T08:44:00;12.77;;;3.80;;
16352;SDS011;8286;51.274;9.542;2024-01-27T08:46:26;9.67;;;4.37;;
16352;SDS011;8286;51.274;9.542;2024-01-27T08:48:53;8.83;;;3.97;;
16352;SDS011;8286;51.274;9.542;2024-01-27T08:51:19;9.43;;;4.17;;
16352;SDS011;8286;51.274;9.542;2024-01-27T08:53:46;13.90;;;4.60;;
16352;SDS011;8286;51.274;9.542;2024-01-27T08:56:14;15.67;;;3.53;;
16352;SDS011;8286;51.274;9.542;2024-01-27T08:58:43;8.73;;;3.37;;
16352;SDS011;8286;51.274;9.542;2024-01-27T09:01:09;9.77;;;3.17;;
16352;SDS011;8286;51.274;9.542;2024-01-27T09:03:38;16.27;;;3.57;;
16352;SDS011;8286;51.274;9.542;2024-01-27T09:06:05;11.93;;;3.20;;
16352;SDS011;8286;51.274;9.542;2024-01-27T09:08:32;9.23;;;4.67;;
16352;SDS011;8286;51.274;9.542;2024-01-27T09:10:59;18.00;;;4.00;;
16352;SDS011;8286;51.274;9.542;2024-01-27T09:13:25;9.83;;;3.90;;
16352;SDS011;8286;51.274;9.542;2024-01-27T09:15:53;10.47;;;3.20;;
16352;SDS011;8286;51.274;9.542;2024-01-27T09:18:20;14.17;;;5.47;;
16352;SDS011;8286;51.274;9.542;2024-01-27T09:20:47;18.03;;;3.87;;
16352;SDS011;8286;51.274;9.542;2024-01-27T09:23:13;10.53;;;4.30;;
16352;SDS011;8286;51.274;9.542;2024-01-27T09:25:40;8.60;;;3.57;;
16352;SDS011;8286;51.274;9.542;2024-01-27T09:28:07;12.53;;;5.00;;
16352;SDS011;8286;51.274;9.542;2024-01-27T09:30:33;14.20;;;3.40;;
16352;SDS011;8286;51.274;9.542;2024-01-27T09:33:01;10.90;;;3.63;;
16352;SDS011;8286;51.274;9.542;2024-01-27T09:35:28;8.93;;;3.93;;
16352;SDS011;8286;51.274;9.542;2024-01-27T09:37:54;11.40;;;4.17;;
16352;SDS011;8286;51.274;9.542;2024-01-27T09:40:21;13.33;;;4.10;;
16352;SDS011;8286;51.274;9.542;2024-01-27T09:42:50;8.57;;;4.03;;
16352;SDS011;8286;51.274;9.542;2024-01-27T09:45:17;15.07;;;4.27;;
16352;SDS011;8286;51.274;9.542;2024-01-27T09:47:44;10.77;;;4.80;;
16352;SDS011;8286;51.274;9.542;2024-01-27T09:50:14;11.73;;;4.80;;
16352;SDS011;8286;51.274;9.542;2024-01-27T09:52:41;12.97;;;4.40;;
16352;SDS011;8286;51.274;9.542;2024-01-27T09:55:07;12.20;;;4.30;;
16352;SDS011;8286;51.274;9.542;2024-01-27T09:57:34;9.53;;;4.20;;
16352;SDS011;8286;51.274;9.542;2024-01-27T10:00:03;10.90;;;4.63;;
16352;SDS011;8286;51.274;9.542;2024-01-27T10:02:30;12.30;;;4.33;;
16352;SDS011;8286;51.274;9.542;2024-01-27T10:04:58;9.43;;;4.63;;
16352;SDS011;8286;51.274;9.542;2024-01-27T10:07:26;10.47;;;3.80;;
16352;SDS011;8286;51.274;9.542;2024-01-27T10:09:52;13.97;;;4.30;;
16352;SDS011;8286;51.274;9.542;2024-01-27T10:12:19;12.80;;;4.20;;
16352;SDS011;8286;51.274;9.542;2024-01-27T10:14:47;12.77;;;4.87;;
16352;SDS011;8286;51.274;9.542;2024-01-27T10:17:19;15.00;;;5.23;;
16352;SDS011;8286;51.274;9.542;2024-01-27T10:19:46;11.50;;;4.33;;
16352;SDS011;8286;51.274;9.542;2024-01-27T10:22:13;16.70;;;5.17;;
16352;SDS011;8286;51.274;9.542;2024-01-27T10:24:41;17.03;;;4.70;;
16352;SDS011;8286;51.274;9.542;2024-01-27T10:27:07;15.23;;;4.77;;
16352;SDS011;8286;51.274;9.542;2024-01-27T10:29:36;14.90;;;4.80;;
16352;SDS011;8286;51.274;9.542;2024-01-27T10:32:09;12.37;;;4.60;;
16352;SDS011;8286;51.274;9.542;2024-01-27T10:34:36;12.93;;;4.57;;
16352;SDS011;8286;51.274;9.542;2024-01-27T10:37:03;11.27;;;4.33;;
16352;SDS011;8286;51.274;9.542;2024-01-27T10:39:30;9.33;;;4.77;;
16352;SDS011;8286;51.274;9.542;2024-01-27T10:41:57;12.90;;;4.83;;
16352;SDS011;8286;51.274;9.542;2024-01-27T10:44:24;13.33;;;5.30;;
16352;SDS011;8286;51.274;9.542;2024-01-27T10:46:53;15.50;;;4.40;;
16352;SDS011;8286;51.274;9.542;2024-01-27T10:49:20;8.97;;;3.87;;
16352;SDS011;8286;51.274;9.542;2024-01-27T10:51:53;16.00;;;4.87;;
16352;SDS011;8286;51.274;9.542;2024-01-27T10:54:22;16.00;;;4.63;;
16352;SDS011;8286;51.274;9.542;2024-01-27T10:56:50;16.40;;;4.50;;
16352;SDS011;8286;51.274;9.542;2024-01-27T10:59:19;11.90;;;4.23;;
16352;SDS011;8286;51.274;9.542;2024-01-27T11:01:46;16.37;;;4.27;;
16352;SDS011;8286;51.274;9.542;2024-01-27T11:04:12;14.80;;;4.17;;
16352;SDS011;8286;51.274;9.542;2024-01-27T11:06:39;13.60;;;4.30;;
16352;SDS011;8286;51.274;9.542;2024-01-27T11:09:08;10.33;;;3.53;;
16352;SDS011;8286;51.274;9.542;2024-01-27T11:11:36;12.30;;;4.13;;
16352;SDS011;8286;51.274;9.542;2024-01-27T11:14:04;17.53;;;4.40;;
16352;SDS011;8286;51.274;9.542;2024-01-27T11:16:32;13.23;;;4.60;;
16352;SDS011;8286;51.274;9.542;2024-01-27T11:18:58;17.07;;;4.73;;
16352;SDS011;8286;51.274;9.542;2024-01-27T11:21:25;13.67;;;4.40;;
16352;SDS011;8286;51.274;9.542;2024-01-27T11:23:51;18.30;;;4.37;;
16352;SDS011;8286;51.274;9.542;2024-01-27T11:26:19;15.83;;;5.07;;
16352;SDS011;8286;51.274;9.542;2024-01-27T11:28:47;15.33;;;5.43;;
16352;SDS011;8286;51.274;9.542;2024-01-27T11:31:15;18.40;;;4.60;;
16352;SDS011;8286;51.274;9.542;2024-01-27T11:33:45;13.00;;;5.23;;
16352;SDS011;8286;51.274;9.542;2024-01-27T11:36:20;15.40;;;5.37;;
16352;SDS011;8286;51.274;9.542;2024-01-27T11:38:48;14.30;;;4.90;;
16352;SDS011;8286;51.274;9.542;2024-01-27T11:41:23;15.67;;;4.90;;
16352;SDS011;8286;51.274;9.542;2024-01-27T11:43:53;13.77;;;5.17;;
16352;SDS011;8286;51.274;9.542;2024-01-27T11:46:20;16.40;;;5.40;;
16352;SDS011;8286;51.274;9.542;2024-01-27T11:48:48;18.20;;;5.30;;
16352;SDS011;8286;51.274;9.542;2024-01-27T11:51:15;10.50;;;4.90;;
16352;SDS011;8286;51.274;9.542;2024-01-27T11:53:42;11.47;;;4.60;;
16352;SDS011;8286;51.274;9.542;2024-01-27T11:56:10;13.80;;;6.10;;
16352;SDS011;8286;51.274;9.542;2024-01-27T11:58:36;18.87;;;5.30;;
16352;SDS011;8286;51.274;9.542;2024-01-27T12:01:03;12.00;;;5.13;;
16352;SDS011;8286;51.274;9.542;2024-01-27T12:03:30;11.83;;;4.70;;
16352;SDS011;8286;51.274;9.542;2024-01-27T12:05:58;13.27;;;4.17;;
16352;SDS011;8286;51.274;9.542;2024-01-27T12:08:24;15.87;;;4.60;;
16352;SDS011;8286;51.274;9.542;2024-01-27T12:10:51;13.43;;;4.63;;
16352;SDS011;8286;51.274;9.542;2024-01-27T12:13:18;12.67;;;4.47;;
16352;SDS011;8286;51.274;9.542;2024-01-27T12:15:44;12.30;;;4.40;;
16352;SDS011;8286;51.274;9.542;2024-01-27T12:18:11;9.60;;;5.13;;
16352;SDS011;8286;51.274;9.542;2024-01-27T12:20:38;19.40;;;5.53;;
16352;SDS011;8286;51.274;9.542;2024-01-27T12:23:06;17.10;;;4.60;;
16352;SDS011;8286;51.274;9.542;2024-01-27T12:25:33;14.43;;;3.80;;
16352;SDS011;8286;51.274;9.542;2024-01-27T12:28:01;13.20;;;4.83;;
16352;SDS011;8286;51.274;9.542;2024-01-27T12:30:28;11.10;;;4.23;;
16352;SDS011;8286;51.274;9.542;2024-01-27T12:32:54;13.97;;;4.63;;
16352;SDS011;8286;51.274;9.542;2024-01-27T12:35:21;11.10;;;4.13;;
16352;SDS011;8286;51.274;9.542;2024-01-27T12:37:48;16.60;;;5.10;;
16352;SDS011;8286;51.274;9.542;2024-01-27T12:40:20;13.27;;;5.17;;
16352;SDS011;8286;51.274;9.542;2024-01-27T12:42:47;11.30;;;4.70;;
16352;SDS011;8286;51.274;9.542;2024-01-27T12:45:13;13.60;;;4.43;;
16352;SDS011;8286;51.274;9.542;2024-01-27T12:47:40;14.90;;;4.97;;
16352;SDS011;8286;51.274;9.542;2024-01-27T12:50:07;12.53;;;4.07;;
16352;SDS011;8286;51.274;9.542;2024-01-27T12:52:34;10.77;;;4.37;;
16352;SDS011;8286;51.274;9.542;2024-01-27T12:55:02;16.57;;;4.63;;
16352;SDS011;8286;51.274;9.542;2024-01-27T12:57:30;13.03;;;3.80;;
16352;SDS011;8286;51.274;9.542;2024-01-27T12:59:56;16.60;;;3.90;;
16352;SDS011;8286;51.274;9.542;2024-01-27T13:02:23;13.27;;;4.23;;
16352;SDS011;8286;51.274;9.542;2024-01-27T13:04:49;7.93;;;3.30;;
16352;SDS011;8286;51.274;9.542;2024-01-27T13:07:16;16.33;;;4.03;;
16352;SDS011;8286;51.274;9.542;2024-01-27T13:09:42;12.57;;;4.20;;
16352;SDS011;8286;51.274;9.542;2024-01-27T13:12:09;8.90;;;3.60;;
16352;SDS011;8286;51.274;9.542;2024-01-27T13:14:37;9.40;;;3.97;;
16352;SDS011;8286;51.274;9.542;2024-01-27T13:17:03;10.73;;;3.90;;
16352;SDS011;8286;51.274;9.542;2024-01-27T13:19:30;13.47;;;3.73;;
16352;SDS011;8286;51.274;9.542;2024-01-27T13:21:56;10.83;;;3.57;;
16352;SDS011;8286;51.274;9.542;2024-01-27T13:24:23;9.50;;;2.90;;
16352;SDS011;8286;51.274;9.542;2024-01-27T13:26:50;12.93;;;4.00;;
16352;SDS011;8286;51.274;9.542;2024-01-27T13:29:17;12.90;;;3.50;;
16352;SDS011;8286;51.274;9.542;2024-01-27T13:31:45;7.23;;;3.20;;
16352;SDS011;8286;51.274;9.542;2024-01-27T13:34:12;12.00;;;3.80;;
16352;SDS011;8286;51.274;9.542;2024-01-27T13:36:39;16.30;;;3.50;;
16352;SDS011;8286;51.274;9.542;2024-01-27T13:39:05;10.97;;;3.33;;
16352;SDS011;8286;51.274;9.542;2024-01-27T13:41:32;11.63;;;3.27;;
16352;SDS011;8286;51.274;9.542;2024-01-27T13:43:58;11.20;;;3.63;;
16352;SDS011;8286;51.274;9.542;2024-01-27T13:46:25;9.47;;;2.97;;
16352;SDS011;8286;51.274;9.542;2024-01-27T13:48:53;10.87;;;2.87;;
16352;SDS011;8286;51.274;9.542;2024-01-27T13:51:20;10.23;;;3.00;;
16352;SDS011;8286;51.274;9.542;2024-01-27T13:53:47;8.83;;;2.30;;
16352;SDS011;8286;51.274;9.542;2024-01-27T13:56:13;8.57;;;3.07;;
16352;SDS011;8286;51.274;9.542;2024-01-27T13:58:40;9.07;;;2.80;;
16352;SDS011;8286;51.274;9.542;2024-01-27T14:01:07;11.60;;;2.50;;
16352;SDS011;8286;51.274;9.542;2024-01-27T14:03:34;8.37;;;2.83;;
16352;SDS011;8286;51.274;9.542;2024-01-27T14:06:03;5.27;;;2.53;;
16352;SDS011;8286;51.274;9.542;2024-01-27T14:08:30;7.47;;;2.80;;
16352;SDS011;8286;51.274;9.542;2024-01-27T14:10:57;9.80;;;2.83;;
16352;SDS011;8286;51.274;9.542;2024-01-27T14:13:23;14.13;;;2.40;;
16352;SDS011;8286;51.274;9.542;2024-01-27T14:15:50;7.07;;;2.70;;
16352;SDS011;8286;51.274;9.542;2024-01-27T14:18:16;5.87;;;2.10;;
16352;SDS011;8286;51.274;9.542;2024-01-27T14:20:46;9.37;;;2.33;;
16352;SDS011;8286;51.274;9.542;2024-01-27T14:23:14;6.67;;;2.23;;
16352;SDS011;8286;51.274;9.542;2024-01-27T14:25:40;6.57;;;2.33;;
16352;SDS011;8286;51.274;9.542;2024-01-27T14:28:07;13.37;;;2.90;;
16352;SDS011;8286;51.274;9.542;2024-01-27T14:30:36;9.90;;;2.53;;
16352;SDS011;8286;51.274;9.542;2024-01-27T14:33:04;4.87;;;2.20;;
16352;SDS011;8286;51.274;9.542;2024-01-27T14:35:31;10.53;;;2.00;;
16352;SDS011;8286;51.274;9.542;2024-01-27T14:37:58;6.90;;;2.60;;
16352;SDS011;8286;51.274;9.542;2024-01-27T14:40:27;8.47;;;2.30;;
16352;SDS011;8286;51.274;9.542;2024-01-27T14:42:54;9.07;;;2.53;;
16352;SDS011;8286;51.274;9.542;2024-01-27T14:45:21;6.77;;;2.43;;
16352;SDS011;8286;51.274;9.542;2024-01-27T14:47:48;10.23;;;2.77;;
16352;SDS011;8286;51.274;9.542;2024-01-27T14:50:14;11.47;;;2.60;;
16352;SDS011;8286;51.274;9.542;2024-01-27T14:52:41;5.20;;;2.10;;